createdAt,value
2023-06-10T00:00:06.846Z,5.73
2023-06-10T00:02:37.125Z,5.23
2023-06-10T00:05:04.653Z,6.67
2023-06-10T00:07:31.545Z,5.80
2023-06-10T00:09:58.530Z,6.23
2023-06-10T00:12:25.484Z,5.83
2023-06-10T00:14:54.624Z,7.07
2023-06-10T00:17:24.088Z,5.90
2023-06-10T00:19:51.699Z,6.57
2023-06-10T00:22:18.755Z,6.57
2023-06-10T00:24:45.871Z,6.47
2023-06-10T00:27:12.806Z,6.97
2023-06-10T00:29:40.118Z,7.00
2023-06-10T00:32:10.201Z,6.10
2023-06-10T00:34:37.175Z,5.90
2023-06-10T00:37:04.354Z,5.77
2023-06-10T00:39:31.442Z,5.60
2023-06-10T00:41:58.588Z,5.63
2023-06-10T00:44:27.704Z,5.90
2023-06-10T00:46:56.918Z,6.17
2023-06-10T00:49:23.860Z,5.50
2023-06-10T00:51:53.907Z,6.07
2023-06-10T00:54:23.204Z,5.87
2023-06-10T00:56:52.926Z,6.40
2023-06-10T00:59:20.247Z,5.63
2023-06-10T01:01:50.201Z,5.40
2023-06-10T01:04:18.308Z,5.30
2023-06-10T01:07:04.103Z,5.63
2023-06-10T01:10:00.427Z,5.30
2023-06-10T01:13:03.945Z,5.50
2023-06-10T01:15:32.762Z,4.90
2023-06-10T01:18:10.627Z,5.73
2023-06-10T01:20:41.328Z,5.00
2023-06-10T01:23:14.793Z,5.33
2023-06-10T01:25:50.926Z,5.80
2023-06-10T01:28:33.759Z,5.43
2023-06-10T01:31:37.665Z,5.50
2023-06-10T01:34:11.992Z,5.77
2023-06-10T01:36:41.914Z,5.00
2023-06-10T01:39:11.772Z,5.07
2023-06-10T01:41:39.458Z,5.60
2023-06-10T01:44:06.424Z,6.00
2023-06-10T01:46:36.486Z,4.90
2023-06-10T01:49:03.737Z,5.73
2023-06-10T01:51:32.724Z,5.53
2023-06-10T01:53:59.731Z,5.30
2023-06-10T01:56:26.735Z,5.53
2023-06-10T01:58:56.609Z,5.40
2023-06-10T02:01:23.580Z,4.93
2023-06-10T02:03:55.189Z,5.10
2023-06-10T02:06:22.311Z,5.30
2023-06-10T02:08:49.245Z,6.10
2023-06-10T02:11:16.169Z,5.30
2023-06-10T02:13:43.118Z,4.77
2023-06-10T02:16:15.184Z,4.57
2023-06-10T02:18:45.235Z,5.13
2023-06-10T02:21:12.154Z,5.77
2023-06-10T02:23:39.137Z,4.57
2023-06-10T02:26:09.374Z,6.03
2023-06-10T02:28:38.881Z,4.67
2023-06-10T02:31:06.502Z,5.03
2023-06-10T02:33:34.891Z,4.97
2023-06-10T02:36:01.911Z,4.60
2023-06-10T02:38:28.830Z,4.27
2023-06-10T02:40:56.024Z,5.70
2023-06-10T02:43:25.279Z,4.53
2023-06-10T02:45:52.218Z,4.20
2023-06-10T02:48:23.869Z,5.23
2023-06-10T02:50:50.807Z,4.63
2023-06-10T02:53:19.880Z,4.90
2023-06-10T02:55:46.792Z,4.23
2023-06-10T02:58:13.854Z,5.60
2023-06-10T03:00:42.209Z,5.07
2023-06-10T03:03:09.609Z,4.80
2023-06-10T03:05:36.653Z,4.60
2023-06-10T03:08:03.740Z,5.00
2023-06-10T03:10:35.870Z,4.90
2023-06-10T03:13:06.045Z,4.33
2023-06-10T03:15:37.429Z,4.23
2023-06-10T03:18:04.592Z,4.40
2023-06-10T03:20:31.816Z,4.20
2023-06-10T03:23:01.488Z,4.00
2023-06-10T03:25:29.842Z,5.27
2023-06-10T03:27:56.883Z,4.67
2023-06-10T03:30:26.149Z,3.90
2023-06-10T03:32:53.129Z,3.77
2023-06-10T03:35:20.245Z,4.23
2023-06-10T03:37:47.602Z,4.43
2023-06-10T03:40:16.964Z,4.40
2023-06-10T03:42:45.175Z,4.10
2023-06-10T03:45:14.604Z,4.20
2023-06-10T03:47:45.034Z,3.10
2023-06-10T03:50:14.496Z,3.77
2023-06-10T03:52:42.088Z,4.97
2023-06-10T03:55:09.810Z,3.90
2023-06-10T03:57:36.991Z,4.00
2023-06-10T04:00:13.478Z,4.53
2023-06-10T04:02:47.536Z,3.63
2023-06-10T04:05:16.489Z,4.30
2023-06-10T04:07:44.975Z,4.03
2023-06-10T04:10:13.053Z,3.67
2023-06-10T04:12:40.707Z,4.23
2023-06-10T04:15:08.479Z,3.80
2023-06-10T04:17:36.278Z,4.00
2023-06-10T04:20:05.053Z,4.10
2023-06-10T04:22:31.973Z,4.00
2023-06-10T04:25:01.565Z,3.80
2023-06-10T04:27:28.901Z,4.40
2023-06-10T04:29:55.784Z,3.13
2023-06-10T04:32:25.206Z,3.60
2023-06-10T04:34:54.759Z,3.70
2023-06-10T04:37:21.935Z,3.63
2023-06-10T04:39:48.956Z,3.73
2023-06-10T04:42:16.123Z,4.37
2023-06-10T04:44:47.765Z,4.60
2023-06-10T04:47:18.215Z,4.20
2023-06-10T04:49:45.639Z,4.80
2023-06-10T04:52:12.650Z,3.87
2023-06-10T04:54:42.612Z,3.83
2023-06-10T04:57:09.602Z,3.97
2023-06-10T04:59:38.707Z,3.43
2023-06-10T05:02:06.633Z,3.63
2023-06-10T05:04:38.258Z,3.47
2023-06-10T05:07:06.081Z,4.00
2023-06-10T05:09:34.092Z,4.47
2023-06-10T05:12:03.907Z,3.37
2023-06-10T05:14:30.786Z,3.97
2023-06-10T05:17:07.139Z,3.53
2023-06-10T05:19:34.276Z,3.70
2023-06-10T05:22:04.024Z,3.60
2023-06-10T05:24:30.918Z,3.67
2023-06-10T05:27:00.538Z,4.80
2023-06-10T05:29:29.712Z,4.00
2023-06-10T05:31:58.798Z,4.30
2023-06-10T05:34:28.791Z,4.00
2023-06-10T05:36:55.780Z,5.00
2023-06-10T05:39:25.921Z,3.93
2023-06-10T05:41:55.304Z,4.07
2023-06-10T05:44:24.434Z,4.07
2023-06-10T05:46:54.404Z,3.90
2023-06-10T05:49:21.383Z,3.93
2023-06-10T05:51:48.345Z,3.30
2023-06-10T05:54:15.261Z,3.53
2023-06-10T05:56:42.207Z,3.90
2023-06-10T05:59:09.409Z,3.60
2023-06-10T06:01:38.503Z,4.37
2023-06-10T06:04:07.824Z,3.60
2023-06-10T06:06:39.417Z,3.30
2023-06-10T06:09:09.821Z,3.77
2023-06-10T06:11:36.912Z,3.87
2023-06-10T06:14:03.909Z,4.50
2023-06-10T06:16:36.392Z,3.80
2023-06-10T06:19:03.382Z,3.50
2023-06-10T06:21:37.516Z,3.60
2023-06-10T06:24:09.815Z,4.10
2023-06-10T06:26:39.346Z,3.77
2023-06-10T06:29:06.417Z,4.50
2023-06-10T06:31:33.385Z,3.30
2023-06-10T06:34:00.599Z,4.20
2023-06-10T06:36:30.017Z,3.37
2023-06-10T06:38:57.070Z,4.00
2023-06-10T06:41:24.034Z,4.33
2023-06-10T06:43:50.928Z,3.63
2023-06-10T06:46:19.950Z,3.57
2023-06-10T06:48:47.123Z,4.20
2023-06-10T06:51:14.288Z,3.13
2023-06-10T06:53:45.435Z,4.27
2023-06-10T06:56:13.379Z,3.93
2023-06-10T06:58:44.810Z,3.20
2023-06-10T07:01:11.719Z,4.67
2023-06-10T07:03:38.635Z,3.80
2023-06-10T07:06:08.046Z,3.90
2023-06-10T07:08:34.863Z,3.53
2023-06-10T07:11:01.898Z,4.40
2023-06-10T07:13:28.873Z,3.93
2023-06-10T07:15:55.778Z,4.63
2023-06-10T07:18:22.745Z,3.50
2023-06-10T07:20:49.858Z,3.77
2023-06-10T07:23:23.895Z,3.90
2023-06-10T07:25:53.044Z,3.80
2023-06-10T07:28:20.005Z,4.40
2023-06-10T07:30:49.269Z,3.20
2023-06-10T07:33:16.285Z,3.73
2023-06-10T07:35:48.440Z,3.40
2023-06-10T07:38:15.515Z,3.67
2023-06-10T07:40:42.455Z,3.87
2023-06-10T07:43:11.548Z,4.17
2023-06-10T07:45:40.854Z,3.67
2023-06-10T07:48:10.354Z,3.47
2023-06-10T07:50:41.408Z,4.10
2023-06-10T07:53:10.878Z,3.83
2023-06-10T07:55:37.864Z,3.63
2023-06-10T07:58:06.868Z,4.50
2023-06-10T08:00:33.745Z,3.90
2023-06-10T08:03:02.876Z,3.47
2023-06-10T08:05:30.235Z,3.90
2023-06-10T08:08:01.376Z,3.73
2023-06-10T08:10:32.975Z,3.20
2023-06-10T08:13:02.424Z,3.23
2023-06-10T08:15:29.592Z,4.20
2023-06-10T08:17:59.600Z,3.70
2023-06-10T08:20:30.869Z,4.33
2023-06-10T08:22:57.767Z,4.60
2023-06-10T08:25:24.791Z,3.97
2023-06-10T08:27:53.072Z,4.50
2023-06-10T08:30:20.042Z,4.20
2023-06-10T08:32:49.604Z,4.30
2023-06-10T08:35:16.533Z,4.27
2023-06-10T08:37:46.409Z,4.23
2023-06-10T08:40:16.364Z,4.17
2023-06-10T08:43:14.101Z,3.87
2023-06-10T08:45:47.146Z,4.00
2023-06-10T08:48:16.165Z,4.90
2023-06-10T08:50:43.563Z,4.90
2023-06-10T08:53:19.615Z,4.57
2023-06-10T08:55:55.066Z,3.97
2023-06-10T08:58:22.412Z,4.27
2023-06-10T09:00:54.851Z,4.93
2023-06-10T09:03:23.073Z,4.67
2023-06-10T09:05:51.068Z,4.37
2023-06-10T09:08:18.347Z,3.77
2023-06-10T09:10:45.352Z,4.73
2023-06-10T09:13:12.279Z,4.47
2023-06-10T09:15:41.325Z,4.30
2023-06-10T09:18:08.544Z,4.27
2023-06-10T09:20:40.571Z,4.60
2023-06-10T09:23:10.792Z,4.80
2023-06-10T09:25:40.704Z,5.00
2023-06-10T09:28:16.082Z,4.70
2023-06-10T09:30:45.587Z,4.10
2023-06-10T09:33:17.261Z,4.37
2023-06-10T09:35:56.902Z,5.17
2023-06-10T09:38:31.020Z,4.77
2023-06-10T09:40:57.923Z,4.40
2023-06-10T09:43:39.763Z,4.83
2023-06-10T09:46:09.417Z,4.77
2023-06-10T09:48:42.699Z,4.60
2023-06-10T09:51:18.333Z,4.37
2023-06-10T09:53:55.443Z,4.63
2023-06-10T09:56:34.296Z,4.60
2023-06-10T09:59:01.266Z,5.00
2023-06-10T10:01:31.394Z,5.50
2023-06-10T10:03:58.906Z,5.20
2023-06-10T10:06:26.921Z,4.67
2023-06-10T10:08:55.273Z,4.47
2023-06-10T10:11:23.923Z,4.70
2023-06-10T10:13:56.168Z,5.13
2023-06-10T10:16:39.980Z,4.97
2023-06-10T10:19:28.866Z,5.27
2023-06-10T10:22:03.104Z,4.20
2023-06-10T10:24:38.012Z,5.60
2023-06-10T10:27:50.286Z,4.90
2023-06-10T10:30:24.330Z,6.27
2023-06-10T10:33:02.778Z,4.90
2023-06-10T10:35:31.724Z,5.43
2023-06-10T10:38:01.036Z,5.07
2023-06-10T10:40:30.562Z,5.00
2023-06-10T10:43:01.610Z,5.13
2023-06-10T10:45:34.681Z,5.37
2023-06-10T10:48:12.674Z,4.83
2023-06-10T10:50:42.313Z,5.60
2023-06-10T10:53:09.627Z,5.37
2023-06-10T10:55:39.731Z,5.17
2023-06-10T10:58:13.105Z,5.10
2023-06-10T11:00:46.278Z,4.83
2023-06-10T11:03:20.899Z,5.00
2023-06-10T11:05:52.220Z,5.77
2023-06-10T11:08:34.350Z,5.17
2023-06-10T11:11:01.395Z,5.63
2023-06-10T11:13:28.941Z,5.40
2023-06-10T11:15:59.540Z,5.30
2023-06-10T11:18:42.663Z,4.80
2023-06-10T11:21:11.663Z,5.17
2023-06-10T11:23:43.278Z,5.57
2023-06-10T11:26:44.687Z,5.80
2023-06-10T11:29:11.863Z,5.00
2023-06-10T11:31:50.574Z,5.27
2023-06-10T11:34:28.204Z,5.47
2023-06-10T11:36:58.698Z,5.23
2023-06-10T11:39:27.779Z,5.03
2023-06-10T11:41:55.198Z,6.80
2023-06-10T11:44:28.957Z,4.97
2023-06-10T11:47:00.194Z,5.13
2023-06-10T11:49:30.346Z,5.23
2023-06-10T11:51:59.677Z,4.87
2023-06-10T11:54:26.826Z,5.23
2023-06-10T11:57:01.102Z,5.30
2023-06-10T11:59:32.172Z,5.47
2023-06-10T12:02:04.762Z,6.13
2023-06-10T12:04:31.806Z,5.13
2023-06-10T12:06:58.808Z,6.00
2023-06-10T12:09:34.223Z,4.87
2023-06-10T12:12:09.880Z,4.93
2023-06-10T12:14:57.030Z,5.10
2023-06-10T12:17:39.528Z,5.37
2023-06-10T12:20:26.381Z,5.53
2023-06-10T12:22:53.824Z,4.93
2023-06-10T12:25:27.856Z,4.70
2023-06-10T12:27:58.422Z,5.23
2023-06-10T12:30:31.425Z,5.60
2023-06-10T12:32:59.176Z,5.07
2023-06-10T12:35:29.739Z,4.80
2023-06-10T12:37:58.789Z,5.07
2023-06-10T12:40:33.802Z,5.37
2023-06-10T12:43:02.241Z,5.47
2023-06-10T12:45:34.394Z,5.50
2023-06-10T12:48:26.194Z,5.40
2023-06-10T12:50:57.696Z,4.60
2023-06-10T12:53:25.749Z,4.40
2023-06-10T12:55:55.376Z,4.80
2023-06-10T12:58:25.804Z,5.17
2023-06-10T13:00:54.924Z,5.00
2023-06-10T13:03:22.697Z,4.83
2023-06-10T13:05:51.983Z,5.07
2023-06-10T13:08:19.200Z,5.17
2023-06-10T13:10:50.774Z,4.83
2023-06-10T13:13:18.713Z,5.20
2023-06-10T13:15:48.332Z,4.70
2023-06-10T13:18:15.336Z,5.47
2023-06-10T13:20:42.360Z,5.00
2023-06-10T13:23:11.599Z,5.13
2023-06-10T13:25:42.110Z,5.03
2023-06-10T13:28:09.055Z,5.27
2023-06-10T13:30:38.555Z,6.07
2023-06-10T13:33:07.836Z,5.27
2023-06-10T13:35:34.916Z,4.87
2023-06-10T13:38:04.179Z,5.00
2023-06-10T13:40:31.365Z,4.30
2023-06-10T13:42:58.482Z,4.57
2023-06-10T13:45:26.009Z,5.97
2023-06-10T13:47:53.105Z,5.23
2023-06-10T13:50:20.455Z,5.23
2023-06-10T13:52:47.429Z,5.40
2023-06-10T13:55:18.585Z,5.60
2023-06-10T13:57:47.633Z,4.87
2023-06-10T14:00:18.258Z,5.67
2023-06-10T14:02:45.891Z,5.40
2023-06-10T14:05:19.927Z,5.23
2023-06-10T14:07:47.074Z,4.97
2023-06-10T14:10:14.043Z,4.97
2023-06-10T14:12:41.089Z,5.30
2023-06-10T14:15:12.125Z,4.57
2023-06-10T14:17:41.526Z,5.00
2023-06-10T14:20:14.322Z,5.97
2023-06-10T14:22:41.637Z,6.10
2023-06-10T14:25:09.577Z,5.43
2023-06-10T14:27:36.739Z,5.33
2023-06-10T14:30:06.764Z,5.33
2023-06-10T14:32:34.030Z,5.27
2023-06-10T14:35:01.327Z,5.10
2023-06-10T14:37:30.861Z,5.50
2023-06-10T14:40:00.697Z,5.43
2023-06-10T14:42:30.478Z,5.37
2023-06-10T14:44:57.482Z,5.40
2023-06-10T14:47:24.772Z,5.43
2023-06-10T14:49:54.074Z,5.40
2023-06-10T14:52:21.010Z,5.63
2023-06-10T14:54:50.312Z,5.20
2023-06-10T14:57:17.436Z,5.87
2023-06-10T14:59:44.459Z,5.40
2023-06-10T15:02:14.404Z,5.70
2023-06-10T15:04:41.396Z,5.60
2023-06-10T15:07:11.064Z,5.27
2023-06-10T15:09:40.089Z,5.60
2023-06-10T15:12:07.700Z,5.30
2023-06-10T15:14:34.674Z,5.27
2023-06-10T15:17:01.751Z,5.93
2023-06-10T15:19:31.389Z,5.80
2023-06-10T15:22:01.379Z,5.40
2023-06-10T15:24:28.391Z,6.00
2023-06-10T15:26:58.383Z,5.20
2023-06-10T15:29:28.027Z,5.83
2023-06-10T15:32:00.017Z,5.40
2023-06-10T15:34:29.586Z,5.47
2023-06-10T15:36:59.623Z,4.97
2023-06-10T15:39:28.376Z,4.20
2023-06-10T15:41:57.808Z,4.47
2023-06-10T15:44:27.282Z,5.03
2023-06-10T15:46:54.378Z,4.03
2023-06-10T15:49:21.338Z,4.70
2023-06-10T15:51:53.000Z,4.50
2023-06-10T15:54:20.034Z,4.87
2023-06-10T15:56:47.021Z,5.40
2023-06-10T15:59:14.181Z,4.60
2023-06-10T16:01:41.187Z,4.43
2023-06-10T16:04:13.312Z,5.00
2023-06-10T16:06:40.554Z,4.77
2023-06-10T16:09:10.207Z,5.10
2023-06-10T16:11:37.331Z,4.70
2023-06-10T16:14:04.413Z,4.27
2023-06-10T16:16:31.463Z,5.13
2023-06-10T16:18:58.875Z,5.37
2023-06-10T16:21:26.224Z,4.53
2023-06-10T16:23:53.432Z,5.20
2023-06-10T16:26:23.332Z,5.50
2023-06-10T16:28:50.444Z,5.77
2023-06-10T16:31:17.538Z,6.23
2023-06-10T16:33:44.532Z,5.13
2023-06-10T16:36:11.497Z,6.07
2023-06-10T16:38:38.418Z,6.07
2023-06-10T16:41:05.412Z,5.40
2023-06-10T16:43:34.925Z,5.17
2023-06-10T16:46:02.098Z,5.67
2023-06-10T16:48:31.255Z,5.47
2023-06-10T16:50:58.432Z,5.30
2023-06-10T16:53:25.324Z,5.57
2023-06-10T16:55:52.367Z,6.10
2023-06-10T16:58:19.328Z,5.50
2023-06-10T17:00:46.964Z,5.90
2023-06-10T17:03:17.752Z,6.53
2023-06-10T17:05:47.986Z,6.90
2023-06-10T17:08:19.977Z,6.30
2023-06-10T17:10:47.007Z,6.50
2023-06-10T17:13:14.060Z,6.63
2023-06-10T17:15:41.795Z,6.27
2023-06-10T17:18:11.920Z,6.77
2023-06-10T17:20:39.051Z,5.60
2023-06-10T17:23:11.702Z,5.67
2023-06-10T17:25:38.810Z,6.53
2023-06-10T17:28:09.012Z,6.67
2023-06-10T17:30:36.136Z,6.00
2023-06-10T17:33:03.278Z,7.00
2023-06-10T17:35:30.460Z,6.23
2023-06-10T17:38:00.673Z,6.03
2023-06-10T17:40:29.957Z,5.20
2023-06-10T17:43:00.190Z,6.07
2023-06-10T17:45:33.025Z,5.87
2023-06-10T17:48:00.078Z,6.23
2023-06-10T17:50:30.006Z,7.27
2023-06-10T17:52:56.893Z,6.07
2023-06-10T17:55:26.719Z,5.70
2023-06-10T17:57:58.464Z,6.67
2023-06-10T18:00:31.158Z,7.03
2023-06-10T18:02:58.251Z,7.43
2023-06-10T18:05:25.325Z,6.60
2023-06-10T18:07:55.426Z,6.57
2023-06-10T18:10:22.505Z,6.70
2023-06-10T18:12:49.481Z,5.87
2023-06-10T18:15:16.513Z,7.43
2023-06-10T18:17:46.217Z,6.07
2023-06-10T18:20:14.476Z,6.30
2023-06-10T18:22:41.462Z,5.87
2023-06-10T18:25:09.036Z,5.93
2023-06-10T18:27:39.494Z,6.63
2023-06-10T18:30:10.421Z,6.00
2023-06-10T18:32:37.569Z,5.60
2023-06-10T18:35:07.751Z,5.57
2023-06-10T18:37:35.118Z,5.27
2023-06-10T18:40:02.323Z,5.37
2023-06-10T18:42:31.396Z,6.00
2023-06-10T18:45:03.269Z,5.77
2023-06-10T18:47:40.842Z,5.80
2023-06-10T18:50:16.226Z,6.00
2023-06-10T18:52:43.170Z,6.13
2023-06-10T18:55:10.403Z,5.47
2023-06-10T18:57:37.481Z,5.20
2023-06-10T19:00:07.404Z,5.57
2023-06-10T19:02:37.377Z,5.70
2023-06-10T19:05:04.817Z,5.90
2023-06-10T19:07:32.120Z,5.33
2023-06-10T19:10:03.872Z,5.23
2023-06-10T19:12:30.853Z,7.20
2023-06-10T19:14:57.903Z,6.80
2023-06-10T19:17:24.964Z,6.53
2023-06-10T19:19:53.975Z,6.93
2023-06-10T19:22:23.430Z,6.60
2023-06-10T19:25:08.534Z,7.40
2023-06-10T19:27:38.010Z,7.40
2023-06-10T19:30:11.239Z,7.90
2023-06-10T19:32:38.426Z,6.70
2023-06-10T19:35:08.958Z,6.50
2023-06-10T19:37:36.176Z,7.20
2023-06-10T19:40:08.271Z,6.53
2023-06-10T19:42:39.792Z,6.77
2023-06-10T19:45:09.545Z,6.40
2023-06-10T19:47:41.439Z,7.23
2023-06-10T19:50:14.272Z,7.23
2023-06-10T19:52:41.459Z,7.00
2023-06-10T19:55:09.598Z,6.90
2023-06-10T19:57:39.734Z,7.60
2023-06-10T20:00:08.774Z,6.80
2023-06-10T20:02:38.353Z,7.13
2023-06-10T20:05:08.049Z,6.70
2023-06-10T20:07:37.306Z,7.37
2023-06-10T20:10:04.851Z,7.23
2023-06-10T20:12:31.882Z,7.43
2023-06-10T20:15:01.807Z,7.20
2023-06-10T20:17:28.934Z,8.17
2023-06-10T20:19:56.158Z,7.40
2023-06-10T20:22:23.155Z,7.30
2023-06-10T20:24:55.988Z,7.60
2023-06-10T20:27:25.560Z,8.00
2023-06-10T20:29:57.196Z,10.13
2023-06-10T20:32:24.853Z,7.53
2023-06-10T20:34:52.234Z,6.40
2023-06-10T20:37:19.311Z,6.73
2023-06-10T20:39:53.304Z,6.10
2023-06-10T20:42:22.748Z,5.93
2023-06-10T20:44:52.804Z,5.43
2023-06-10T20:47:22.766Z,4.57
2023-06-10T20:49:52.498Z,4.60
2023-06-10T20:52:22.411Z,5.10
2023-06-10T20:54:51.654Z,5.17
2023-06-10T20:57:21.827Z,5.40
2023-06-10T20:59:49.203Z,5.67
2023-06-10T21:02:16.260Z,4.77
2023-06-10T21:04:43.277Z,4.30
2023-06-10T21:07:10.654Z,4.40
2023-06-10T21:09:37.567Z,4.97
2023-06-10T21:12:05.166Z,4.40
2023-06-10T21:14:32.138Z,4.77
2023-06-10T21:16:59.235Z,4.40
2023-06-10T21:19:26.122Z,4.80
2023-06-10T21:21:55.292Z,3.93
2023-06-10T21:24:22.262Z,4.30
2023-06-10T21:26:49.239Z,4.00
2023-06-10T21:29:19.172Z,4.53
2023-06-10T21:31:51.188Z,4.70
2023-06-10T21:34:22.870Z,4.27
2023-06-10T21:36:52.030Z,4.03
2023-06-10T21:39:21.921Z,3.93
2023-06-10T21:41:51.145Z,4.87
2023-06-10T21:44:18.036Z,4.43
2023-06-10T21:46:44.982Z,4.50
2023-06-10T21:49:16.425Z,3.77
2023-06-10T21:51:45.676Z,3.83
2023-06-10T21:54:13.508Z,3.83
2023-06-10T21:56:40.904Z,4.30
2023-06-10T21:59:07.785Z,4.53
2023-06-10T22:01:36.715Z,4.00
2023-06-10T22:04:03.991Z,3.60
2023-06-10T22:06:34.709Z,4.30
2023-06-10T22:09:04.199Z,3.73
2023-06-10T22:11:31.210Z,4.00
2023-06-10T22:13:58.156Z,3.30
2023-06-10T22:16:25.136Z,3.10
2023-06-10T22:18:54.612Z,3.50
2023-06-10T22:21:26.161Z,3.20
2023-06-10T22:23:55.680Z,3.53
2023-06-10T22:26:36.865Z,3.60
2023-06-10T22:29:13.011Z,3.37
2023-06-10T22:31:39.980Z,3.47
2023-06-10T22:34:06.926Z,3.30
2023-06-10T22:36:37.343Z,3.33
2023-06-10T22:39:12.761Z,2.63
2023-06-10T22:41:41.012Z,3.17
2023-06-10T22:44:07.965Z,3.23
2023-06-10T22:46:37.618Z,3.30
2023-06-10T22:49:04.827Z,3.13
2023-06-10T22:51:34.590Z,3.27
2023-06-10T22:54:01.455Z,2.73
2023-06-10T22:56:28.455Z,3.00
2023-06-10T22:58:58.436Z,3.10
2023-06-10T23:01:25.521Z,2.30
2023-06-10T23:03:55.524Z,2.70
2023-06-10T23:06:22.803Z,2.50
2023-06-10T23:08:51.887Z,2.93
2023-06-10T23:11:18.894Z,2.47
2023-06-10T23:13:45.887Z,2.30
2023-06-10T23:16:15.872Z,3.03
2023-06-10T23:18:42.832Z,3.30
2023-06-10T23:21:15.777Z,2.60
2023-06-10T23:23:46.089Z,3.00
2023-06-10T23:26:13.110Z,3.50
2023-06-10T23:28:39.976Z,3.03
2023-06-10T23:31:08.935Z,3.00
2023-06-10T23:33:36.057Z,3.13
2023-06-10T23:36:06.175Z,2.70
2023-06-10T23:38:35.656Z,2.70
2023-06-10T23:41:02.582Z,2.80
2023-06-10T23:43:29.500Z,2.60
2023-06-10T23:45:56.425Z,3.33
2023-06-10T23:48:25.759Z,2.87
2023-06-10T23:50:55.982Z,2.77
2023-06-10T23:53:25.309Z,3.00
2023-06-10T23:55:52.317Z,2.70
2023-06-10T23:58:19.516Z,3.00
